sensor_id;sensor_type;location;lat;lon;timestamp;P1;durP1;ratioP1;P2;durP2;ratioP2
29214;SDS011;16252;49.816;7.964;2023-03-03T00:00:57;27.80;;;13.43;;
29214;SDS011;16252;49.816;7.964;2023-03-03T00:03:23;31.13;;;14.65;;
29214;SDS011;16252;49.816;7.964;2023-03-03T00:05:51;38.33;;;16.77;;
29214;SDS011;16252;49.816;7.964;2023-03-03T00:08:17;28.73;;;14.13;;
29214;SDS011;16252;49.816;7.964;2023-03-03T00:10:43;29.23;;;13.82;;
29214;SDS011;16252;49.816;7.964;2023-03-03T00:13:14;24.05;;;12.45;;
29214;SDS011;16252;49.816;7.964;2023-03-03T00:15:41;22.50;;;11.85;;
29214;SDS011;16252;49.816;7.964;2023-03-03T00:20:55;19.70;;;9.73;;
29214;SDS011;16252;49.816;7.964;2023-03-03T00:26:01;16.48;;;8.55;;
29214;SDS011;16252;49.816;7.964;2023-03-03T00:28:44;18.83;;;8.88;;
29214;SDS011;16252;49.816;7.964;2023-03-03T00:31:26;15.57;;;8.52;;
29214;SDS011;16252;49.816;7.964;2023-03-03T00:33:56;15.73;;;7.50;;
29214;SDS011;16252;49.816;7.964;2023-03-03T00:36:44;12.50;;;7.25;;
29214;SDS011;16252;49.816;7.964;2023-03-03T00:42:00;12.65;;;7.10;;
29214;SDS011;16252;49.816;7.964;2023-03-03T00:44:42;15.25;;;7.97;;
29214;SDS011;16252;49.816;7.964;2023-03-03T00:47:28;15.40;;;7.85;;
29214;SDS011;16252;49.816;7.964;2023-03-03T00:52:38;16.83;;;8.30;;
29214;SDS011;16252;49.816;7.964;2023-03-03T00:55:09;15.10;;;8.25;;
29214;SDS011;16252;49.816;7.964;2023-03-03T00:57:35;15.38;;;7.72;;
29214;SDS011;16252;49.816;7.964;2023-03-03T01:00:00;17.23;;;8.98;;
29214;SDS011;16252;49.816;7.964;2023-03-03T01:02:25;16.27;;;9.57;;
29214;SDS011;16252;49.816;7.964;2023-03-03T01:04:51;21.48;;;9.70;;
29214;SDS011;16252;49.816;7.964;2023-03-03T01:07:20;18.17;;;9.33;;
29214;SDS011;16252;49.816;7.964;2023-03-03T01:09:45;19.80;;;9.80;;
29214;SDS011;16252;49.816;7.964;2023-03-03T01:12:11;14.82;;;8.55;;
29214;SDS011;16252;49.816;7.964;2023-03-03T01:14:37;17.65;;;9.73;;
29214;SDS011;16252;49.816;7.964;2023-03-03T01:17:02;17.67;;;8.50;;
29214;SDS011;16252;49.816;7.964;2023-03-03T01:19:28;18.98;;;7.95;;
29214;SDS011;16252;49.816;7.964;2023-03-03T01:21:53;17.75;;;8.82;;
29214;SDS011;16252;49.816;7.964;2023-03-03T01:26:46;16.85;;;8.70;;
29214;SDS011;16252;49.816;7.964;2023-03-03T01:29:12;17.15;;;8.23;;
29214;SDS011;16252;49.816;7.964;2023-03-03T01:31:37;15.70;;;8.63;;
29214;SDS011;16252;49.816;7.964;2023-03-03T01:34:04;16.85;;;7.47;;
29214;SDS011;16252;49.816;7.964;2023-03-03T01:36:31;15.45;;;7.70;;
29214;SDS011;16252;49.816;7.964;2023-03-03T01:38:57;13.52;;;7.45;;
29214;SDS011;16252;49.816;7.964;2023-03-03T01:41:22;14.68;;;7.57;;
29214;SDS011;16252;49.816;7.964;2023-03-03T01:43:50;13.25;;;7.10;;
29214;SDS011;16252;49.816;7.964;2023-03-03T01:46:25;11.48;;;6.40;;
29214;SDS011;16252;49.816;7.964;2023-03-03T01:49:22;13.27;;;7.45;;
29214;SDS011;16252;49.816;7.964;2023-03-03T01:51:53;13.15;;;7.35;;
29214;SDS011;16252;49.816;7.964;2023-03-03T01:56:52;11.25;;;5.75;;
29214;SDS011;16252;49.816;7.964;2023-03-03T01:59:22;12.45;;;6.80;;
29214;SDS011;16252;49.816;7.964;2023-03-03T02:01:52;14.88;;;7.03;;
29214;SDS011;16252;49.816;7.964;2023-03-03T02:04:17;16.20;;;7.78;;
29214;SDS011;16252;49.816;7.964;2023-03-03T02:06:46;14.73;;;7.43;;
29214;SDS011;16252;49.816;7.964;2023-03-03T02:09:25;14.38;;;8.35;;
29214;SDS011;16252;49.816;7.964;2023-03-03T02:11:59;15.20;;;7.38;;
29214;SDS011;16252;49.816;7.964;2023-03-03T02:14:27;14.38;;;6.78;;
29214;SDS011;16252;49.816;7.964;2023-03-03T02:16:53;10.95;;;5.93;;
29214;SDS011;16252;49.816;7.964;2023-03-03T02:21:56;11.98;;;6.65;;
29214;SDS011;16252;49.816;7.964;2023-03-03T02:24:24;16.70;;;7.13;;
29214;SDS011;16252;49.816;7.964;2023-03-03T02:26:57;13.10;;;7.70;;
29214;SDS011;16252;49.816;7.964;2023-03-03T02:29:23;13.70;;;7.38;;
29214;SDS011;16252;49.816;7.964;2023-03-03T02:31:48;17.27;;;7.40;;
29214;SDS011;16252;49.816;7.964;2023-03-03T02:34:13;15.32;;;7.63;;
29214;SDS011;16252;49.816;7.964;2023-03-03T02:36:39;17.75;;;8.10;;
29214;SDS011;16252;49.816;7.964;2023-03-03T02:44:09;12.68;;;6.38;;
29214;SDS011;16252;49.816;7.964;2023-03-03T02:46:38;15.30;;;7.00;;
29214;SDS011;16252;49.816;7.964;2023-03-03T02:49:06;14.32;;;7.40;;
29214;SDS011;16252;49.816;7.964;2023-03-03T02:51:33;13.77;;;7.63;;
29214;SDS011;16252;49.816;7.964;2023-03-03T02:54:00;16.55;;;7.30;;
29214;SDS011;16252;49.816;7.964;2023-03-03T02:56:26;11.32;;;6.60;;
29214;SDS011;16252;49.816;7.964;2023-03-03T02:58:51;13.30;;;6.38;;
29214;SDS011;16252;49.816;7.964;2023-03-03T03:01:17;11.63;;;6.63;;
29214;SDS011;16252;49.816;7.964;2023-03-03T03:03:43;11.82;;;7.05;;
29214;SDS011;16252;49.816;7.964;2023-03-03T03:06:08;12.15;;;6.25;;
29214;SDS011;16252;49.816;7.964;2023-03-03T03:08:34;13.98;;;7.22;;
29214;SDS011;16252;49.816;7.964;2023-03-03T03:10:59;11.73;;;6.15;;
29214;SDS011;16252;49.816;7.964;2023-03-03T03:13:26;12.15;;;7.03;;
29214;SDS011;16252;49.816;7.964;2023-03-03T03:15:51;15.63;;;6.70;;
29214;SDS011;16252;49.816;7.964;2023-03-03T03:18:17;10.55;;;6.18;;
29214;SDS011;16252;49.816;7.964;2023-03-03T03:20:42;12.45;;;6.38;;
29214;SDS011;16252;49.816;7.964;2023-03-03T03:23:09;11.90;;;5.95;;
29214;SDS011;16252;49.816;7.964;2023-03-03T03:25:34;10.13;;;6.13;;
29214;SDS011;16252;49.816;7.964;2023-03-03T03:28:06;11.82;;;6.18;;
29214;SDS011;16252;49.816;7.964;2023-03-03T03:30:32;10.05;;;5.80;;
29214;SDS011;16252;49.816;7.964;2023-03-03T03:32:57;9.63;;;5.55;;
29214;SDS011;16252;49.816;7.964;2023-03-03T03:35:22;9.57;;;5.60;;
29214;SDS011;16252;49.816;7.964;2023-03-03T03:37:47;9.05;;;5.85;;
29214;SDS011;16252;49.816;7.964;2023-03-03T03:40:13;9.45;;;6.07;;
29214;SDS011;16252;49.816;7.964;2023-03-03T03:42:38;10.65;;;6.05;;
29214;SDS011;16252;49.816;7.964;2023-03-03T03:45:04;10.65;;;5.95;;
29214;SDS011;16252;49.816;7.964;2023-03-03T03:47:30;8.52;;;5.80;;
29214;SDS011;16252;49.816;7.964;2023-03-03T03:49:55;7.80;;;5.45;;
29214;SDS011;16252;49.816;7.964;2023-03-03T03:52:21;10.32;;;5.82;;
29214;SDS011;16252;49.816;7.964;2023-03-03T03:54:46;10.25;;;5.82;;
29214;SDS011;16252;49.816;7.964;2023-03-03T03:57:11;8.15;;;5.22;;
29214;SDS011;16252;49.816;7.964;2023-03-03T03:59:37;9.23;;;5.35;;
29214;SDS011;16252;49.816;7.964;2023-03-03T04:02:02;10.52;;;5.85;;
29214;SDS011;16252;49.816;7.964;2023-03-03T04:04:28;8.90;;;5.35;;
29214;SDS011;16252;49.816;7.964;2023-03-03T04:06:53;10.98;;;5.95;;
29214;SDS011;16252;49.816;7.964;2023-03-03T04:09:18;11.70;;;5.68;;
29214;SDS011;16252;49.816;7.964;2023-03-03T04:11:43;11.35;;;6.35;;
29214;SDS011;16252;49.816;7.964;2023-03-03T04:14:09;9.65;;;5.35;;
29214;SDS011;16252;49.816;7.964;2023-03-03T04:16:34;8.75;;;5.57;;
29214;SDS011;16252;49.816;7.964;2023-03-03T04:18:59;11.77;;;5.95;;
29214;SDS011;16252;49.816;7.964;2023-03-03T04:21:25;10.73;;;5.63;;
29214;SDS011;16252;49.816;7.964;2023-03-03T04:23:51;7.68;;;5.07;;
29214;SDS011;16252;49.816;7.964;2023-03-03T04:26:17;9.35;;;5.22;;
29214;SDS011;16252;49.816;7.964;2023-03-03T04:28:43;11.63;;;5.60;;
29214;SDS011;16252;49.816;7.964;2023-03-03T04:31:08;9.05;;;5.60;;
29214;SDS011;16252;49.816;7.964;2023-03-03T04:33:34;8.23;;;5.30;;
29214;SDS011;16252;49.816;7.964;2023-03-03T04:36:00;11.45;;;5.18;;
29214;SDS011;16252;49.816;7.964;2023-03-03T04:38:25;10.68;;;5.50;;
29214;SDS011;16252;49.816;7.964;2023-03-03T04:40:50;9.77;;;5.60;;
29214;SDS011;16252;49.816;7.964;2023-03-03T04:43:16;9.98;;;5.75;;
29214;SDS011;16252;49.816;7.964;2023-03-03T04:45:41;9.38;;;5.13;;
29214;SDS011;16252;49.816;7.964;2023-03-03T04:48:06;11.43;;;6.00;;
29214;SDS011;16252;49.816;7.964;2023-03-03T04:50:32;10.52;;;5.15;;
29214;SDS011;16252;49.816;7.964;2023-03-03T04:52:58;8.55;;;5.38;;
29214;SDS011;16252;49.816;7.964;2023-03-03T04:55:24;10.10;;;5.20;;
29214;SDS011;16252;49.816;7.964;2023-03-03T04:57:49;9.27;;;5.68;;
29214;SDS011;16252;49.816;7.964;2023-03-03T05:00:14;9.93;;;5.25;;
29214;SDS011;16252;49.816;7.964;2023-03-03T05:02:40;9.13;;;5.32;;
29214;SDS011;16252;49.816;7.964;2023-03-03T05:05:06;8.90;;;4.85;;
29214;SDS011;16252;49.816;7.964;2023-03-03T05:07:31;11.30;;;5.80;;
29214;SDS011;16252;49.816;7.964;2023-03-03T05:09:57;13.82;;;6.60;;
29214;SDS011;16252;49.816;7.964;2023-03-03T05:12:22;14.77;;;7.55;;
29214;SDS011;16252;49.816;7.964;2023-03-03T05:14:48;11.32;;;6.55;;
29214;SDS011;16252;49.816;7.964;2023-03-03T05:17:13;11.57;;;6.13;;
29214;SDS011;16252;49.816;7.964;2023-03-03T05:19:38;9.07;;;5.50;;
29214;SDS011;16252;49.816;7.964;2023-03-03T05:22:04;12.15;;;6.65;;
29214;SDS011;16252;49.816;7.964;2023-03-03T05:24:29;10.90;;;5.88;;
29214;SDS011;16252;49.816;7.964;2023-03-03T05:26:54;9.65;;;5.80;;
29214;SDS011;16252;49.816;7.964;2023-03-03T05:29:19;9.98;;;6.13;;
29214;SDS011;16252;49.816;7.964;2023-03-03T05:31:45;13.38;;;6.05;;
29214;SDS011;16252;49.816;7.964;2023-03-03T05:34:10;12.73;;;6.30;;
29214;SDS011;16252;49.816;7.964;2023-03-03T05:36:35;11.13;;;5.47;;
29214;SDS011;16252;49.816;7.964;2023-03-03T05:39:00;12.63;;;6.15;;
29214;SDS011;16252;49.816;7.964;2023-03-03T05:41:26;10.93;;;5.63;;
29214;SDS011;16252;49.816;7.964;2023-03-03T05:43:51;11.63;;;5.78;;
29214;SDS011;16252;49.816;7.964;2023-03-03T05:46:17;13.40;;;7.68;;
29214;SDS011;16252;49.816;7.964;2023-03-03T05:48:42;12.45;;;6.70;;
29214;SDS011;16252;49.816;7.964;2023-03-03T05:51:07;14.10;;;7.70;;
29214;SDS011;16252;49.816;7.964;2023-03-03T05:53:33;12.48;;;6.07;;
29214;SDS011;16252;49.816;7.964;2023-03-03T05:55:58;10.82;;;6.30;;
29214;SDS011;16252;49.816;7.964;2023-03-03T05:58:27;11.20;;;6.75;;
29214;SDS011;16252;49.816;7.964;2023-03-03T06:00:52;11.57;;;6.05;;
29214;SDS011;16252;49.816;7.964;2023-03-03T06:03:17;12.10;;;5.47;;
29214;SDS011;16252;49.816;7.964;2023-03-03T06:05:42;11.07;;;6.60;;
29214;SDS011;16252;49.816;7.964;2023-03-03T06:08:08;9.80;;;6.15;;
29214;SDS011;16252;49.816;7.964;2023-03-03T06:10:34;11.95;;;6.10;;
29214;SDS011;16252;49.816;7.964;2023-03-03T06:12:59;11.15;;;6.00;;
29214;SDS011;16252;49.816;7.964;2023-03-03T06:15:24;10.45;;;6.35;;
29214;SDS011;16252;49.816;7.964;2023-03-03T06:17:50;11.82;;;5.72;;
29214;SDS011;16252;49.816;7.964;2023-03-03T06:20:15;14.80;;;6.38;;
29214;SDS011;16252;49.816;7.964;2023-03-03T06:22:41;14.07;;;6.25;;
29214;SDS011;16252;49.816;7.964;2023-03-03T06:25:06;9.55;;;5.75;;
29214;SDS011;16252;49.816;7.964;2023-03-03T06:27:32;14.23;;;5.82;;
29214;SDS011;16252;49.816;7.964;2023-03-03T06:29:57;15.32;;;6.35;;
29214;SDS011;16252;49.816;7.964;2023-03-03T06:32:23;13.68;;;6.93;;
29214;SDS011;16252;49.816;7.964;2023-03-03T06:34:48;15.05;;;6.65;;
29214;SDS011;16252;49.816;7.964;2023-03-03T06:37:13;12.57;;;7.38;;
29214;SDS011;16252;49.816;7.964;2023-03-03T06:39:39;13.88;;;6.43;;
29214;SDS011;16252;49.816;7.964;2023-03-03T06:42:04;11.75;;;6.18;;
29214;SDS011;16252;49.816;7.964;2023-03-03T06:44:30;10.75;;;6.22;;
29214;SDS011;16252;49.816;7.964;2023-03-03T06:46:55;9.95;;;6.35;;
29214;SDS011;16252;49.816;7.964;2023-03-03T06:49:21;11.15;;;6.25;;
29214;SDS011;16252;49.816;7.964;2023-03-03T06:51:47;11.60;;;6.40;;
29214;SDS011;16252;49.816;7.964;2023-03-03T06:54:16;11.48;;;5.75;;
29214;SDS011;16252;49.816;7.964;2023-03-03T06:56:43;9.55;;;5.57;;
29214;SDS011;16252;49.816;7.964;2023-03-03T06:59:16;10.23;;;6.40;;
29214;SDS011;16252;49.816;7.964;2023-03-03T07:01:43;11.35;;;6.72;;
29214;SDS011;16252;49.816;7.964;2023-03-03T07:04:14;8.13;;;4.65;;
29214;SDS011;16252;49.816;7.964;2023-03-03T07:06:43;14.63;;;6.53;;
29214;SDS011;16252;49.816;7.964;2023-03-03T07:09:13;10.70;;;5.88;;
29214;SDS011;16252;49.816;7.964;2023-03-03T07:11:45;11.35;;;6.57;;
29214;SDS011;16252;49.816;7.964;2023-03-03T07:14:13;13.93;;;6.50;;
29214;SDS011;16252;49.816;7.964;2023-03-03T07:16:42;8.63;;;5.78;;
29214;SDS011;16252;49.816;7.964;2023-03-03T07:19:13;8.20;;;5.57;;
29214;SDS011;16252;49.816;7.964;2023-03-03T07:21:44;10.60;;;6.50;;
29214;SDS011;16252;49.816;7.964;2023-03-03T07:24:17;10.52;;;5.93;;
29214;SDS011;16252;49.816;7.964;2023-03-03T07:26:49;11.38;;;6.88;;
29214;SDS011;16252;49.816;7.964;2023-03-03T07:31:46;14.70;;;7.38;;
29214;SDS011;16252;49.816;7.964;2023-03-03T07:34:19;11.40;;;6.93;;
29214;SDS011;16252;49.816;7.964;2023-03-03T07:36:47;14.85;;;6.40;;
29214;SDS011;16252;49.816;7.964;2023-03-03T07:39:27;11.88;;;6.78;;
29214;SDS011;16252;49.816;7.964;2023-03-03T07:44:39;10.82;;;6.28;;
29214;SDS011;16252;49.816;7.964;2023-03-03T07:47:17;9.85;;;5.93;;
29214;SDS011;16252;49.816;7.964;2023-03-03T07:49:47;11.77;;;6.63;;
29214;SDS011;16252;49.816;7.964;2023-03-03T07:52:19;9.07;;;5.78;;
29214;SDS011;16252;49.816;7.964;2023-03-03T07:54:47;9.38;;;6.00;;
29214;SDS011;16252;49.816;7.964;2023-03-03T07:57:22;12.90;;;6.72;;
29214;SDS011;16252;49.816;7.964;2023-03-03T08:02:46;12.77;;;7.57;;
29214;SDS011;16252;49.816;7.964;2023-03-03T08:10:58;12.73;;;7.78;;
29214;SDS011;16252;49.816;7.964;2023-03-03T08:13:34;18.48;;;8.85;;
29214;SDS011;16252;49.816;7.964;2023-03-03T08:21:00;17.20;;;9.60;;
29214;SDS011;16252;49.816;7.964;2023-03-03T08:23:30;14.55;;;8.88;;
29214;SDS011;16252;49.816;7.964;2023-03-03T08:25:56;14.48;;;8.38;;
29214;SDS011;16252;49.816;7.964;2023-03-03T08:28:21;17.38;;;9.30;;
29214;SDS011;16252;49.816;7.964;2023-03-03T08:30:47;20.70;;;9.48;;
29214;SDS011;16252;49.816;7.964;2023-03-03T08:33:13;16.45;;;8.52;;
29214;SDS011;16252;49.816;7.964;2023-03-03T08:35:39;19.02;;;9.68;;
29214;SDS011;16252;49.816;7.964;2023-03-03T08:38:04;15.27;;;8.82;;
29214;SDS011;16252;49.816;7.964;2023-03-03T08:40:31;16.35;;;9.38;;
29214;SDS011;16252;49.816;7.964;2023-03-03T08:42:57;18.13;;;9.68;;
29214;SDS011;16252;49.816;7.964;2023-03-03T08:45:23;22.25;;;11.23;;
29214;SDS011;16252;49.816;7.964;2023-03-03T08:47:48;18.20;;;10.25;;
29214;SDS011;16252;49.816;7.964;2023-03-03T08:50:14;23.52;;;10.77;;
29214;SDS011;16252;49.816;7.964;2023-03-03T08:52:40;21.95;;;11.70;;
29214;SDS011;16252;49.816;7.964;2023-03-03T08:55:05;20.77;;;11.43;;
29214;SDS011;16252;49.816;7.964;2023-03-03T08:57:31;21.30;;;11.45;;
29214;SDS011;16252;49.816;7.964;2023-03-03T08:59:56;19.67;;;10.75;;
29214;SDS011;16252;49.816;7.964;2023-03-03T09:02:22;20.40;;;10.98;;
29214;SDS011;16252;49.816;7.964;2023-03-03T09:04:47;21.33;;;11.68;;
29214;SDS011;16252;49.816;7.964;2023-03-03T09:07:12;22.52;;;11.95;;
29214;SDS011;16252;49.816;7.964;2023-03-03T09:09:37;21.92;;;13.00;;
29214;SDS011;16252;49.816;7.964;2023-03-03T09:12:12;27.55;;;14.30;;
29214;SDS011;16252;49.816;7.964;2023-03-03T09:14:40;25.30;;;13.70;;
29214;SDS011;16252;49.816;7.964;2023-03-03T09:17:16;25.45;;;14.20;;
29214;SDS011;16252;49.816;7.964;2023-03-03T09:19:47;27.23;;;14.68;;
29214;SDS011;16252;49.816;7.964;2023-03-03T09:22:23;28.80;;;14.73;;
29214;SDS011;16252;49.816;7.964;2023-03-03T09:24:51;23.75;;;13.48;;
29214;SDS011;16252;49.816;7.964;2023-03-03T09:27:21;27.52;;;14.82;;
29214;SDS011;16252;49.816;7.964;2023-03-03T09:29:54;27.67;;;14.82;;
29214;SDS011;16252;49.816;7.964;2023-03-03T09:32:36;30.63;;;15.43;;
29214;SDS011;16252;49.816;7.964;2023-03-03T09:37:59;23.80;;;13.65;;
29214;SDS011;16252;49.816;7.964;2023-03-03T09:40:49;25.73;;;14.18;;
29214;SDS011;16252;49.816;7.964;2023-03-03T09:46:18;24.10;;;13.38;;
29214;SDS011;16252;49.816;7.964;2023-03-03T09:51:43;26.38;;;14.70;;
29214;SDS011;16252;49.816;7.964;2023-03-03T10:02:34;24.02;;;13.50;;
29214;SDS011;16252;49.816;7.964;2023-03-03T10:15:53;22.13;;;14.20;;
29214;SDS011;16252;49.816;7.964;2023-03-03T10:18:27;27.13;;;14.80;;
29214;SDS011;16252;49.816;7.964;2023-03-03T10:21:19;25.48;;;14.02;;
29214;SDS011;16252;49.816;7.964;2023-03-03T10:23:54;27.30;;;15.10;;
29214;SDS011;16252;49.816;7.964;2023-03-03T10:37:47;23.67;;;14.98;;
29214;SDS011;16252;49.816;7.964;2023-03-03T10:45:28;24.08;;;15.18;;
29214;SDS011;16252;49.816;7.964;2023-03-03T10:50:49;20.48;;;13.95;;
29214;SDS011;16252;49.816;7.964;2023-03-03T10:53:28;25.38;;;15.93;;
29214;SDS011;16252;49.816;7.964;2023-03-03T10:56:00;24.17;;;14.75;;
29214;SDS011;16252;49.816;7.964;2023-03-03T11:04:05;23.25;;;14.88;;
29214;SDS011;16252;49.816;7.964;2023-03-03T11:20:03;21.50;;;14.02;;
29214;SDS011;16252;49.816;7.964;2023-03-03T11:25:31;21.50;;;14.43;;
29214;SDS011;16252;49.816;7.964;2023-03-03T11:28:13;24.38;;;16.00;;
29214;SDS011;16252;49.816;7.964;2023-03-03T11:33:35;23.73;;;14.80;;
29214;SDS011;16252;49.816;7.964;2023-03-03T11:38:52;26.05;;;16.58;;
29214;SDS011;16252;49.816;7.964;2023-03-03T11:44:30;24.40;;;15.43;;
29214;SDS011;16252;49.816;7.964;2023-03-03T11:47:18;22.88;;;14.43;;
29214;SDS011;16252;49.816;7.964;2023-03-03T11:52:21;27.42;;;16.88;;
29214;SDS011;16252;49.816;7.964;2023-03-03T11:55:02;28.70;;;16.85;;
29214;SDS011;16252;49.816;7.964;2023-03-03T12:08:43;25.38;;;15.25;;
29214;SDS011;16252;49.816;7.964;2023-03-03T12:11:53;25.00;;;15.88;;
29214;SDS011;16252;49.816;7.964;2023-03-03T12:20:33;27.65;;;16.42;;
29214;SDS011;16252;49.816;7.964;2023-03-03T12:23:14;30.30;;;15.68;;
29214;SDS011;16252;49.816;7.964;2023-03-03T12:25:44;27.92;;;16.63;;
29214;SDS011;16252;49.816;7.964;2023-03-03T12:28:16;30.25;;;16.60;;
29214;SDS011;16252;49.816;7.964;2023-03-03T12:33:48;27.75;;;15.88;;
29214;SDS011;16252;49.816;7.964;2023-03-03T12:36:27;28.27;;;16.55;;
29214;SDS011;16252;49.816;7.964;2023-03-03T12:42:12;33.72;;;16.40;;
29214;SDS011;16252;49.816;7.964;2023-03-03T12:44:46;26.65;;;14.85;;
29214;SDS011;16252;49.816;7.964;2023-03-03T12:50:19;26.38;;;14.93;;
29214;SDS011;16252;49.816;7.964;2023-03-03T12:55:49;25.27;;;14.38;;
29214;SDS011;16252;49.816;7.964;2023-03-03T12:58:26;27.83;;;15.68;;
29214;SDS011;16252;49.816;7.964;2023-03-03T13:20:53;29.33;;;14.20;;
29214;SDS011;16252;49.816;7.964;2023-03-03T13:29:03;24.88;;;14.98;;
29214;SDS011;16252;49.816;7.964;2023-03-03T13:31:34;26.23;;;14.63;;
29214;SDS011;16252;49.816;7.964;2023-03-03T13:34:03;24.98;;;14.40;;
29214;SDS011;16252;49.816;7.964;2023-03-03T13:36:47;26.55;;;14.02;;
29214;SDS011;16252;49.816;7.964;2023-03-03T13:39:24;22.98;;;14.02;;
29214;SDS011;16252;49.816;7.964;2023-03-03T13:44:49;25.55;;;13.90;;
29214;SDS011;16252;49.816;7.964;2023-03-03T13:47:16;24.13;;;13.65;;
29214;SDS011;16252;49.816;7.964;2023-03-03T13:52:52;27.45;;;13.77;;
29214;SDS011;16252;49.816;7.964;2023-03-03T14:01:07;20.17;;;11.88;;
29214;SDS011;16252;49.816;7.964;2023-03-03T14:03:58;23.40;;;13.38;;
29214;SDS011;16252;49.816;7.964;2023-03-03T14:06:46;22.50;;;13.50;;
29214;SDS011;16252;49.816;7.964;2023-03-03T14:09:27;23.83;;;13.38;;
29214;SDS011;16252;49.816;7.964;2023-03-03T14:12:01;21.73;;;13.40;;
29214;SDS011;16252;49.816;7.964;2023-03-03T14:14:35;23.80;;;13.80;;
29214;SDS011;16252;49.816;7.964;2023-03-03T14:19:47;18.53;;;10.57;;
29214;SDS011;16252;49.816;7.964;2023-03-03T14:22:24;23.15;;;12.68;;
29214;SDS011;16252;49.816;7.964;2023-03-03T14:27:27;21.52;;;12.55;;
29214;SDS011;16252;49.816;7.964;2023-03-03T14:29:59;19.13;;;11.55;;
29214;SDS011;16252;49.816;7.964;2023-03-03T14:32:25;23.10;;;12.77;;
29214;SDS011;16252;49.816;7.964;2023-03-03T14:34:56;17.95;;;11.38;;
29214;SDS011;16252;49.816;7.964;2023-03-03T14:37:25;19.77;;;12.38;;
29214;SDS011;16252;49.816;7.964;2023-03-03T14:42:54;21.40;;;11.70;;
29214;SDS011;16252;49.816;7.964;2023-03-03T14:45:33;19.77;;;11.05;;
29214;SDS011;16252;49.816;7.964;2023-03-03T14:48:10;19.95;;;12.07;;
29214;SDS011;16252;49.816;7.964;2023-03-03T14:51:30;20.38;;;12.27;;
29214;SDS011;16252;49.816;7.964;2023-03-03T14:53:48;22.48;;;13.05;;
29214;SDS011;16252;49.816;7.964;2023-03-03T14:58:53;20.52;;;12.07;;
29214;SDS011;16252;49.816;7.964;2023-03-03T15:01:34;20.25;;;11.40;;
29214;SDS011;16252;49.816;7.964;2023-03-03T15:04:01;20.88;;;11.88;;
29214;SDS011;16252;49.816;7.964;2023-03-03T15:06:35;19.88;;;11.05;;
29214;SDS011;16252;49.816;7.964;2023-03-03T15:09:23;21.30;;;12.48;;
29214;SDS011;16252;49.816;7.964;2023-03-03T15:11:57;19.50;;;11.13;;
29214;SDS011;16252;49.816;7.964;2023-03-03T15:14:31;21.40;;;12.32;;
29214;SDS011;16252;49.816;7.964;2023-03-03T15:17:15;21.08;;;11.48;;
29214;SDS011;16252;49.816;7.964;2023-03-03T15:22:21;20.17;;;11.75;;
29214;SDS011;16252;49.816;7.964;2023-03-03T15:24:57;21.02;;;12.20;;
29214;SDS011;16252;49.816;7.964;2023-03-03T15:27:56;22.25;;;12.10;;
29214;SDS011;16252;49.816;7.964;2023-03-03T15:33:13;21.63;;;12.00;;
29214;SDS011;16252;49.816;7.964;2023-03-03T15:39:00;19.85;;;11.48;;
29214;SDS011;16252;49.816;7.964;2023-03-03T16:04:05;26.38;;;15.15;;
29214;SDS011;16252;49.816;7.964;2023-03-03T16:06:46;27.45;;;14.63;;
29214;SDS011;16252;49.816;7.964;2023-03-03T16:09:26;25.02;;;14.90;;
29214;SDS011;16252;49.816;7.964;2023-03-03T16:17:31;31.88;;;15.45;;
29214;SDS011;16252;49.816;7.964;2023-03-03T16:20:08;31.88;;;16.42;;
29214;SDS011;16252;49.816;7.964;2023-03-03T16:22:48;27.85;;;15.60;;
29214;SDS011;16252;49.816;7.964;2023-03-03T16:28:13;28.58;;;15.15;;
29214;SDS011;16252;49.816;7.964;2023-03-03T16:30:46;30.83;;;16.15;;
29214;SDS011;16252;49.816;7.964;2023-03-03T16:33:40;27.77;;;15.88;;
29214;SDS011;16252;49.816;7.964;2023-03-03T16:38:42;29.25;;;16.40;;
29214;SDS011;16252;49.816;7.964;2023-03-03T16:41:18;28.00;;;15.40;;
29214;SDS011;16252;49.816;7.964;2023-03-03T16:46:46;28.58;;;16.13;;
29214;SDS011;16252;49.816;7.964;2023-03-03T16:49:17;27.88;;;16.13;;
29214;SDS011;16252;49.816;7.964;2023-03-03T16:52:11;28.17;;;15.57;;
29214;SDS011;16252;49.816;7.964;2023-03-03T16:54:43;28.80;;;16.40;;
29214;SDS011;16252;49.816;7.964;2023-03-03T17:06:15;27.02;;;15.45;;
29214;SDS011;16252;49.816;7.964;2023-03-03T17:11:38;29.38;;;16.45;;
29214;SDS011;16252;49.816;7.964;2023-03-03T17:14:16;28.95;;;17.20;;
29214;SDS011;16252;49.816;7.964;2023-03-03T17:17:13;31.45;;;17.02;;
29214;SDS011;16252;49.816;7.964;2023-03-03T17:22:34;31.98;;;17.17;;
29214;SDS011;16252;49.816;7.964;2023-03-03T17:25:16;34.92;;;18.42;;
29214;SDS011;16252;49.816;7.964;2023-03-03T17:27:56;31.80;;;17.13;;
29214;SDS011;16252;49.816;7.964;2023-03-03T17:33:54;33.28;;;16.95;;
29214;SDS011;16252;49.816;7.964;2023-03-03T17:42:49;29.77;;;16.65;;
29214;SDS011;16252;49.816;7.964;2023-03-03T17:45:21;30.80;;;16.25;;
29214;SDS011;16252;49.816;7.964;2023-03-03T17:53:16;34.88;;;19.10;;
29214;SDS011;16252;49.816;7.964;2023-03-03T18:04:55;29.95;;;16.00;;
29214;SDS011;16252;49.816;7.964;2023-03-03T18:10:34;27.77;;;16.52;;
29214;SDS011;16252;49.816;7.964;2023-03-03T18:21:56;31.77;;;16.63;;
29214;SDS011;16252;49.816;7.964;2023-03-03T18:24:35;31.92;;;16.23;;
29214;SDS011;16252;49.816;7.964;2023-03-03T18:35:23;31.60;;;17.23;;
29214;SDS011;16252;49.816;7.964;2023-03-03T18:40:58;35.03;;;18.10;;
29214;SDS011;16252;49.816;7.964;2023-03-03T18:43:48;32.50;;;18.08;;
29214;SDS011;16252;49.816;7.964;2023-03-03T18:48:56;32.47;;;17.23;;
29214;SDS011;16252;49.816;7.964;2023-03-03T19:04:36;33.30;;;17.77;;
29214;SDS011;16252;49.816;7.964;2023-03-03T19:07:47;33.83;;;17.65;;
29214;SDS011;16252;49.816;7.964;2023-03-03T19:09:57;29.73;;;16.48;;
29214;SDS011;16252;49.816;7.964;2023-03-03T19:12:46;31.42;;;16.85;;
29214;SDS011;16252;49.816;7.964;2023-03-03T19:17:55;38.92;;;19.92;;
29214;SDS011;16252;49.816;7.964;2023-03-03T19:20:22;36.60;;;18.52;;
29214;SDS011;16252;49.816;7.964;2023-03-03T19:22:49;34.80;;;19.50;;
29214;SDS011;16252;49.816;7.964;2023-03-03T19:25:27;37.15;;;18.60;;
29214;SDS011;16252;49.816;7.964;2023-03-03T19:28:01;34.85;;;18.42;;
29214;SDS011;16252;49.816;7.964;2023-03-03T19:39:37;33.30;;;16.45;;
29214;SDS011;16252;49.816;7.964;2023-03-03T19:45:15;34.17;;;17.77;;
29214;SDS011;16252;49.816;7.964;2023-03-03T19:47:51;38.70;;;18.85;;
29214;SDS011;16252;49.816;7.964;2023-03-03T19:50:42;38.88;;;18.17;;
29214;SDS011;16252;49.816;7.964;2023-03-03T19:59:00;36.28;;;17.58;;
29214;SDS011;16252;49.816;7.964;2023-03-03T20:04:11;36.58;;;17.63;;
29214;SDS011;16252;49.816;7.964;2023-03-03T20:12:21;39.40;;;18.52;;
29214;SDS011;16252;49.816;7.964;2023-03-03T20:15:15;42.63;;;19.15;;
29214;SDS011;16252;49.816;7.964;2023-03-03T20:21:03;35.90;;;16.52;;
29214;SDS011;16252;49.816;7.964;2023-03-03T20:32:07;42.65;;;21.10;;
29214;SDS011;16252;49.816;7.964;2023-03-03T20:38:06;41.70;;;18.58;;
29214;SDS011;16252;49.816;7.964;2023-03-03T20:43:50;40.88;;;17.77;;
29214;SDS011;16252;49.816;7.964;2023-03-03T20:51:40;37.30;;;17.47;;
29214;SDS011;16252;49.816;7.964;2023-03-03T20:54:13;40.65;;;18.00;;
29214;SDS011;16252;49.816;7.964;2023-03-03T21:00:03;33.20;;;15.55;;
29214;SDS011;16252;49.816;7.964;2023-03-03T21:05:07;39.55;;;18.23;;
29214;SDS011;16252;49.816;7.964;2023-03-03T21:07:33;35.65;;;17.55;;
29214;SDS011;16252;49.816;7.964;2023-03-03T21:10:08;40.95;;;19.58;;
29214;SDS011;16252;49.816;7.964;2023-03-03T21:15:07;36.45;;;16.25;;